logo
Search for airport 
image banner adimage banner adimage banner ad
image banner ad

CCC3 - Cooks Creek

Located in , Canada

ICAO - , IATA -

Data provided by Airmate  

General information

Coordinates: N50°1'55" W96°43'58"
Elevation is 785 feet MSL.
Magnetic variation is 3° East
View others Airports in Manitoba

Operational data

Special qualification required
Current time UTC:
Current local time:
METAR: CYWG 161900Z 35012G19KT 300V020 15SM SCT040 BKN070 19/11 A2999 RMK CU4AC2 SLP160 DENSITY ALT 1400FT
TAF: TAF CYWG 161740Z 1618/1718 35012G22KT P6SM SCT050 TEMPO 1618/1624 P6SM -SHRA BKN050 FM170000 36010KT P6SM FEW050 FM170600 34008KT P6SM SCT040 TEMPO 1706/1716 BKN040 RMK NXT FCST BY 170000Z
View NOTAMs / SUP AIP / TFR affecting this airport [VIEW]
Communications frequencies: [VIEW]

Runways:

RWY identifierQFULength (ft)Width (ft)SurfaceLDA (ft)
0990°180040GRASS
27270°180040GRASS

Airport contact information

Address: Canada

Satellite view of CCC3